Time;durP1;ratioP1;P1;durP2;ratioP2;P2;SDS_P1;SDS_P2;PMS_P1;PMS_P2;Temp;Humidity;BMP_temperature;BMP_pressure;BME280_temperature;BME280_humidity;BME280_pressure;Samples;Min_cycle;Max_cycle;Signal;HPM_P1;HPM_P2
2022/04/26 03:36:59;;;;;;;16.60;8.60;;;7.80;99.90;;;;;;4993340;28;20478;-65
2022/04/26 03:39:25;;;;;;;14.13;8.40;;;7.80;99.90;;;;;;4993687;28;20061;-66
2022/04/26 03:41:51;;;;;;;15.45;8.52;;;7.70;99.90;;;;;;4993703;28;20042;-65
2022/04/26 03:44:17;;;;;;;20.05;8.77;;;7.80;99.90;;;;;;4995731;28;20046;-65
2022/04/26 03:46:43;;;;;;;14.65;8.55;;;7.80;99.90;;;;;;5012809;28;20133;-65
2022/04/26 03:49:09;;;;;;;13.70;7.82;;;7.80;99.90;;;;;;5013504;28;20057;-65
2022/04/26 03:51:34;;;;;;;13.45;8.38;;;7.80;99.90;;;;;;5012077;28;20045;-64
2022/04/26 03:54:00;;;;;;;14.30;8.15;;;7.90;99.90;;;;;;5013854;28;20125;-64
2022/04/26 03:56:25;;;;;;;15.32;7.90;;;7.90;99.90;;;;;;5017252;28;20529;-65
2022/04/26 03:58:51;;;;;;;13.15;7.82;;;7.90;99.90;;;;;;5017463;28;20038;-65
2022/04/26 04:01:17;;;;;;;12.88;7.57;;;7.80;99.90;;;;;;5005410;28;20069;-64
2022/04/26 04:03:43;;;;;;;14.43;7.40;;;7.70;99.90;;;;;;4980106;28;20341;-65
2022/04/26 04:06:08;;;;;;;15.40;7.07;;;7.80;99.90;;;;;;4997240;28;20045;-65
2022/04/26 04:08:34;;;;;;;12.55;6.97;;;7.90;99.90;;;;;;4964113;28;20049;-65
2022/04/26 04:11:00;;;;;;;13.45;6.90;;;7.80;99.90;;;;;;5005629;28;20398;-65
2022/04/26 04:13:25;;;;;;;15.30;7.40;;;7.80;99.90;;;;;;5017211;28;20034;-65
2022/04/26 04:15:51;;;;;;;15.57;6.80;;;7.70;99.90;;;;;;5016441;28;20451;-65
2022/04/26 04:21:01;;;;;;;15.38;7.07;;;8.10;99.90;;;;;;4989867;28;20045;-65
2022/04/26 04:23:27;;;;;;;13.48;6.63;;;7.90;99.90;;;;;;4979713;28;20046;-64
2022/04/26 04:25:53;;;;;;;15.52;7.68;;;7.90;99.90;;;;;;4979896;28;20038;-65
2022/04/26 04:28:18;;;;;;;14.90;7.10;;;7.80;99.90;;;;;;4997074;28;20156;-64
2022/04/26 04:30:44;;;;;;;16.80;7.72;;;7.80;99.90;;;;;;4985673;28;20042;-65
2022/04/26 04:33:10;;;;;;;16.10;6.97;;;7.80;99.90;;;;;;5016357;28;20066;-65
2022/04/26 04:35:35;;;;;;;15.95;7.88;;;7.80;99.90;;;;;;4998896;28;20076;-64
2022/04/26 04:38:01;;;;;;;13.23;7.00;;;7.80;99.90;;;;;;5016356;28;20112;-64
2022/04/26 04:40:27;;;;;;;19.33;7.57;;;7.80;99.90;;;;;;4994434;28;20121;-64
2022/04/26 04:42:52;;;;;;;15.32;7.18;;;7.80;99.90;;;;;;4979282;28;20049;-66
2022/04/26 04:45:18;;;;;;;16.13;7.53;;;7.70;99.90;;;;;;4996085;28;20043;-64
2022/04/26 04:47:45;;;;;;;15.63;6.60;;;7.70;99.90;;;;;;4996394;28;20121;-65
2022/04/26 04:50:10;;;;;;;17.83;7.38;;;7.70;99.90;;;;;;4997679;28;20121;-65
2022/04/26 04:52:36;;;;;;;14.05;7.35;;;7.80;99.90;;;;;;5016110;28;20116;-65
2022/04/26 04:55:02;;;;;;;17.25;7.72;;;7.80;99.90;;;;;;5015183;28;20336;-64
2022/04/26 04:57:28;;;;;;;14.23;7.00;;;7.90;99.90;;;;;;4999940;28;20100;-65
2022/04/26 04:59:53;;;;;;;18.02;7.95;;;7.90;99.90;;;;;;5014600;28;20054;-65
2022/04/26 05:02:19;;;;;;;15.60;7.88;;;7.90;99.90;;;;;;5011247;28;20033;-65
2022/04/26 05:04:47;;;;;;;18.75;8.02;;;7.90;99.90;;;;;;5014687;28;20048;-64
2022/04/26 05:07:12;;;;;;;17.20;7.63;;;7.80;99.90;;;;;;5014639;28;20061;-65
2022/04/26 05:09:38;;;;;;;11.27;6.82;;;7.80;99.90;;;;;;5015001;28;20037;-64
2022/04/26 05:12:04;;;;;;;13.93;7.25;;;8.00;99.90;;;;;;5013729;28;20037;-64
2022/04/26 05:14:30;;;;;;;16.95;6.72;;;7.90;99.90;;;;;;5014782;28;20044;-65
2022/04/26 05:16:56;;;;;;;14.70;6.78;;;8.00;99.90;;;;;;5015206;28;20343;-64
2022/04/26 05:19:21;;;;;;;15.27;6.72;;;8.00;99.90;;;;;;5014468;28;20539;-65
2022/04/26 05:21:47;;;;;;;13.45;6.60;;;8.00;99.90;;;;;;5014740;28;20041;-66
2022/04/26 05:26:56;;;;;;;12.15;6.45;;;7.90;99.90;;;;;;5001615;28;20084;-63
2022/04/26 05:29:24;;;;;;;16.25;7.43;;;8.00;99.90;;;;;;4997532;28;20357;-64
2022/04/26 05:31:50;;;;;;;17.65;7.10;;;7.90;99.90;;;;;;5000269;28;20047;-65
2022/04/26 05:34:15;;;;;;;13.98;6.80;;;7.90;99.90;;;;;;4995219;28;20088;-64
2022/04/26 05:36:41;;;;;;;17.13;7.15;;;7.80;99.90;;;;;;4978347;28;20452;-64
2022/04/26 05:39:06;;;;;;;15.43;7.30;;;7.80;99.90;;;;;;4995374;28;20128;-65
2022/04/26 05:41:32;;;;;;;14.88;5.80;;;7.80;99.90;;;;;;5007676;28;20064;-64
2022/04/26 05:43:58;;;;;;;18.05;7.13;;;8.00;99.90;;;;;;4997458;28;20042;-66
2022/04/26 05:46:23;;;;;;;15.20;7.13;;;8.00;99.90;;;;;;4993266;28;20054;-65
2022/04/26 05:48:49;;;;;;;19.25;7.18;;;7.90;99.90;;;;;;4994744;28;20069;-65
2022/04/26 05:51:15;;;;;;;13.65;6.90;;;8.00;99.90;;;;;;4984872;28;20039;-68
2022/04/26 05:53:40;;;;;;;14.02;6.35;;;7.90;99.90;;;;;;4991142;28;20047;-69
2022/04/26 05:56:08;;;;;;;12.45;6.53;;;8.00;99.90;;;;;;5004020;28;20061;-67
2022/04/26 05:58:34;;;;;;;19.02;7.05;;;8.20;99.90;;;;;;4994387;28;20042;-68
2022/04/26 06:01:00;;;;;;;10.07;6.13;;;8.10;99.90;;;;;;4985787;28;20362;-68
2022/04/26 06:03:26;;;;;;;12.30;6.22;;;8.00;99.90;;;;;;4975468;28;20134;-69
2022/04/26 06:05:55;;;;;;;10.90;6.43;;;8.10;99.90;;;;;;4974584;28;20122;-67
2022/04/26 06:08:22;;;;;;;12.70;6.30;;;8.20;99.90;;;;;;4974819;28;20043;-66
2022/04/26 06:10:47;;;;;;;12.57;6.35;;;8.20;99.90;;;;;;4962804;28;20053;-66
2022/04/26 06:13:13;;;;;;;12.82;5.68;;;8.20;99.90;;;;;;4993699;28;20049;-65
2022/04/26 06:15:39;;;;;;;12.38;6.25;;;8.20;99.90;;;;;;4993597;28;20117;-66
2022/04/26 06:18:05;;;;;;;15.50;6.32;;;8.20;99.90;;;;;;4992877;28;20038;-65
2022/04/26 06:20:30;;;;;;;11.13;5.90;;;8.20;99.90;;;;;;4990655;28;20031;-65
2022/04/26 06:22:56;;;;;;;13.73;6.57;;;8.30;99.90;;;;;;4992670;28;20454;-65
2022/04/26 06:25:21;;;;;;;14.85;6.43;;;8.30;99.90;;;;;;4993598;28;20366;-65
2022/04/26 06:27:47;;;;;;;12.80;5.70;;;8.30;99.90;;;;;;4994218;28;20105;-66
2022/04/26 06:30:14;;;;;;;17.23;6.35;;;8.40;99.90;;;;;;4991779;28;20081;-66
2022/04/26 06:32:42;;;;;;;13.23;5.45;;;8.50;99.90;;;;;;4973931;28;20047;-65
2022/04/26 06:35:08;;;;;;;11.07;5.63;;;8.50;99.90;;;;;;4974973;28;20046;-65
2022/04/26 06:37:33;;;;;;;16.65;6.57;;;8.50;99.90;;;;;;4974553;28;20042;-65
2022/04/26 06:39:59;;;;;;;12.60;5.40;;;8.70;99.90;;;;;;4973888;28;20050;-65
2022/04/26 06:42:24;;;;;;;11.30;5.07;;;8.70;99.90;;;;;;4990831;28;20077;-65
2022/04/26 06:44:50;;;;;;;14.40;5.93;;;8.80;99.90;;;;;;4993209;28;20046;-66
2022/04/26 06:47:16;;;;;;;15.75;5.45;;;8.80;99.90;;;;;;4992354;28;20086;-65
2022/04/26 06:49:41;;;;;;;10.35;4.88;;;8.70;99.90;;;;;;4994327;28;20121;-67
2022/04/26 06:52:07;;;;;;;14.70;5.45;;;8.90;99.90;;;;;;4977023;28;20448;-65
2022/04/26 06:54:33;;;;;;;13.45;5.22;;;8.90;99.90;;;;;;4993370;28;20177;-65
2022/04/26 06:56:58;;;;;;;9.23;4.30;;;9.00;99.90;;;;;;4991185;28;20046;-65
2022/04/26 06:59:24;;;;;;;14.23;4.55;;;9.00;99.90;;;;;;4992806;28;20129;-68
2022/04/26 07:01:53;;;;;;;9.82;4.65;;;9.20;99.90;;;;;;4989716;28;20042;-65
2022/04/26 07:04:22;;;;;;;10.57;4.30;;;9.30;99.90;;;;;;4993426;28;20046;-65
2022/04/26 07:06:48;;;;;;;11.18;4.45;;;9.40;99.90;;;;;;4993046;28;20053;-65
2022/04/26 07:09:14;;;;;;;12.07;4.38;;;9.40;99.90;;;;;;4993734;28;20366;-66
2022/04/26 07:11:42;;;;;;;12.02;4.55;;;9.40;99.90;;;;;;4980963;28;20038;-65
2022/04/26 07:14:09;;;;;;;12.55;4.47;;;9.60;99.90;;;;;;4974570;28;20051;-65
2022/04/26 07:16:35;;;;;;;14.40;4.38;;;9.40;99.90;;;;;;4974167;28;20035;-66
2022/04/26 07:19:01;;;;;;;9.57;3.75;;;9.30;99.90;;;;;;4978396;28;20045;-65
2022/04/26 07:21:26;;;;;;;9.75;3.80;;;9.40;99.90;;;;;;4989252;28;20297;-65
2022/04/26 07:23:52;;;;;;;8.85;3.60;;;9.50;99.90;;;;;;4993608;28;20506;-67
2022/04/26 07:26:17;;;;;;;11.40;4.18;;;9.70;99.90;;;;;;4993964;28;20038;-66
2022/04/26 07:28:43;;;;;;;8.63;3.95;;;9.50;99.90;;;;;;4994414;28;20125;-68
2022/04/26 07:31:09;;;;;;;11.68;4.20;;;9.60;99.90;;;;;;4988232;28;20071;-68
2022/04/26 07:36:22;;;;;;;8.90;3.88;;;9.90;99.90;;;;;;4978624;28;20054;-66
2022/04/26 07:38:48;;;;;;;10.85;4.15;;;10.00;99.90;;;;;;4977868;28;20046;-66
2022/04/26 07:41:13;;;;;;;9.13;4.00;;;10.10;99.90;;;;;;4986001;28;20430;-66
2022/04/26 07:43:39;;;;;;;10.15;4.10;;;10.00;99.90;;;;;;4997471;28;20436;-66
2022/04/26 07:46:06;;;;;;;12.15;3.90;;;10.00;99.90;;;;;;5004920;28;20054;-66
2022/04/26 07:48:32;;;;;;;10.48;4.68;;;10.00;99.90;;;;;;5016734;28;20133;-65
2022/04/26 07:50:57;;;;;;;9.63;3.70;;;10.00;99.90;;;;;;5003238;28;20110;-67
2022/04/26 07:53:25;;;;;;;11.65;3.85;;;10.30;99.90;;;;;;4976608;28;20143;-67
2022/04/26 07:55:51;;;;;;;7.75;3.80;;;10.50;99.90;;;;;;4976914;28;20047;-67
2022/04/26 07:58:16;;;;;;;8.63;4.10;;;10.40;99.90;;;;;;4989202;28;20038;-66
2022/04/26 08:00:42;;;;;;;9.15;4.03;;;10.60;99.90;;;;;;5006828;28;20081;-68
2022/04/26 08:03:08;;;;;;;8.98;4.25;;;10.40;99.90;;;;;;4976951;28;20127;-67
2022/04/26 08:05:33;;;;;;;8.07;4.00;;;10.20;99.90;;;;;;4978016;28;20043;-66
2022/04/26 08:07:59;;;;;;;9.55;4.32;;;10.00;99.90;;;;;;4977328;28;20042;-68
2022/04/26 08:10:24;;;;;;;10.05;4.35;;;10.00;99.90;;;;;;4994908;28;20160;-67
2022/04/26 08:12:50;;;;;;;10.80;4.47;;;10.00;99.90;;;;;;4996093;28;20380;-68
2022/04/26 08:15:18;;;;;;;7.38;4.10;;;10.20;99.90;;;;;;4997209;28;20038;-66
2022/04/26 08:17:44;;;;;;;10.32;4.10;;;10.40;99.90;;;;;;4996770;28;20050;-66
2022/04/26 08:20:10;;;;;;;7.32;3.42;;;10.60;99.90;;;;;;4996460;28;20065;-67
2022/04/26 08:22:37;;;;;;;11.63;3.75;;;10.80;99.90;;;;;;4976330;28;20549;-64
2022/04/26 08:27:49;;;;;;;11.68;3.47;;;10.90;99.90;;;;;;4975957;28;20062;-65
2022/04/26 08:30:14;;;;;;;6.15;3.50;;;11.00;99.90;;;;;;4977712;28;20444;-67
2022/04/26 08:32:41;;;;;;;8.25;4.07;;;10.90;99.90;;;;;;4996733;28;20058;-66
2022/04/26 08:35:10;;;;;;;8.13;3.20;;;11.10;99.90;;;;;;4997002;28;20125;-67
2022/04/26 08:37:36;;;;;;;8.68;3.95;;;11.00;99.90;;;;;;4996331;28;20466;-66
2022/04/26 08:40:05;;;;;;;8.45;3.70;;;11.00;99.90;;;;;;4996162;28;20485;-66
2022/04/26 08:42:39;;;;;;;6.97;3.70;;;10.90;99.90;;;;;;4977401;28;20046;-65
2022/04/26 08:45:06;;;;;;;;;;;10.80;99.90;;;;;;4976358;28;20090;-66
2022/04/26 08:53:02;;;;;;;6.63;4.05;;;10.90;99.90;;;;;;5016178;28;20050;-67
2022/04/26 08:55:39;;;;;;;8.50;4.22;;;11.00;99.90;;;;;;5015892;28;20041;-65
2022/04/26 08:58:06;;;;;;;;;;;11.10;99.90;;;;;;5015372;28;20049;-64
2022/04/26 09:00:32;;;;;;;13.40;3.83;;;11.40;99.90;;;;;;5012997;28;19925;-67
2022/04/26 09:03:03;;;;;;;10.00;3.80;;;11.50;99.90;;;;;;4980875;28;20050;-66
2022/04/26 09:05:29;;;;;;;9.63;3.92;;;11.70;99.90;;;;;;5015074;28;20052;-66
2022/04/26 09:07:56;;;;;;;8.52;3.45;;;11.70;99.90;;;;;;5015521;28;20116;-66
2022/04/26 09:10:22;;;;;;;8.90;3.40;;;11.70;99.90;;;;;;5014503;28;20034;-65
2022/04/26 09:13:04;;;;;;;7.50;3.15;;;11.90;99.90;;;;;;4996064;28;20383;-65
2022/04/26 09:15:51;;;;;;;7.90;3.70;;;11.70;99.90;;;;;;4996176;28;20050;-66
2022/04/26 09:18:27;;;;;;;6.47;3.33;;;12.10;99.90;;;;;;4995658;28;20038;-66
2022/04/26 09:20:58;;;;;;;5.82;3.25;;;12.10;99.90;;;;;;4992260;28;20325;-66
2022/04/26 09:23:28;;;;;;;8.43;3.35;;;12.30;99.90;;;;;;4962935;28;20050;-65
2022/04/26 09:26:08;;;;;;;9.60;3.72;;;12.50;99.90;;;;;;4996056;28;20038;-66
2022/04/26 09:28:37;;;;;;;8.07;3.30;;;12.70;99.90;;;;;;4978094;28;20046;-66
2022/04/26 09:31:19;;;;;;;6.38;3.15;;;12.70;99.90;;;;;;5002280;28;20052;-65
2022/04/26 09:33:47;;;;;;;5.97;3.17;;;12.90;99.90;;;;;;4997555;28;20088;-66
2022/04/26 09:36:14;;;;;;;9.85;3.20;;;12.80;99.90;;;;;;5015218;28;20042;-66
2022/04/26 09:38:48;;;;;;;5.13;3.05;;;13.00;99.90;;;;;;5014525;28;20471;-66
2022/04/26 09:41:14;;;;;;;7.90;3.10;;;13.10;99.90;;;;;;5006825;28;20478;-66
2022/04/26 09:43:40;;;;;;;8.73;3.13;;;12.90;99.90;;;;;;4995556;28;20065;-66
2022/04/26 09:46:06;;;;;;;6.82;3.10;;;12.60;99.90;;;;;;4995033;28;20480;-65
2022/04/26 09:48:37;;;;;;;5.57;2.88;;;12.50;99.90;;;;;;4995069;28;20077;-66
2022/04/26 09:51:03;;;;;;;6.30;2.83;;;12.20;99.90;;;;;;5001475;28;20033;-66
2022/04/26 09:53:32;;;;;;;8.65;3.50;;;12.50;99.90;;;;;;5014275;28;20045;-66
2022/04/26 09:56:03;;;;;;;4.60;2.50;;;12.50;99.90;;;;;;5015053;28;20084;-66
2022/04/26 09:58:29;;;;;;;6.65;2.90;;;12.90;99.90;;;;;;5014361;28;20042;-65
2022/04/26 10:01:01;;;;;;;6.00;2.78;;;12.60;99.90;;;;;;5009238;28;20578;-65
2022/04/26 10:03:36;;;;;;;5.40;2.65;;;12.50;99.90;;;;;;5004811;28;20088;-66
2022/04/26 10:06:07;;;;;;;8.40;3.47;;;12.60;99.90;;;;;;5013557;28;20042;-65
2022/04/26 10:08:36;;;;;;;6.85;3.03;;;12.80;99.90;;;;;;5014235;28;20038;-66
2022/04/26 10:11:04;;;;;;;4.95;2.85;;;13.10;99.90;;;;;;5008283;28;20053;-67
2022/04/26 10:13:32;;;;;;;6.80;2.53;;;13.30;99.90;;;;;;4961381;28;20038;-65
2022/04/26 10:16:08;;;;;;;7.30;2.80;;;13.60;99.90;;;;;;4978526;28;20038;-65
2022/04/26 10:18:44;;;;;;;7.80;2.50;;;13.90;99.90;;;;;;4994700;28;20123;-65
2022/04/26 10:21:32;;;;;;;5.80;2.70;;;14.00;99.90;;;;;;5007064;28;20053;-65
2022/04/26 10:24:04;;;;;;;5.00;2.58;;;13.80;99.90;;;;;;4977258;28;20472;-65
2022/04/26 10:26:33;;;;;;;7.20;3.00;;;13.80;99.90;;;;;;4994293;28;20042;-65
2022/04/26 10:29:08;;;;;;;10.05;2.67;;;14.20;99.90;;;;;;4977257;28;20082;-66
2022/04/26 10:31:46;;;;;;;5.95;2.25;;;13.80;99.60;;;;;;4971073;28;20042;-65
2022/04/26 10:34:20;;;;;;;8.60;2.95;;;14.10;99.20;;;;;;4980643;28;20452;-67
2022/04/26 10:37:21;;;;;;;4.20;2.03;;;14.10;98.60;;;;;;4996334;28;20050;-65
2022/04/26 10:40:00;;;;;;;4.53;2.30;;;14.30;97.90;;;;;;4996479;28;20041;-65
2022/04/26 10:42:31;;;;;;;4.25;2.20;;;14.10;98.30;;;;;;4979374;28;20046;-65
2022/04/26 10:45:07;;;;;;;8.23;2.78;;;14.40;98.60;;;;;;4977241;28;20050;-64
2022/04/26 10:47:34;;;;;;;6.22;2.30;;;14.10;98.90;;;;;;4956977;28;20069;-65
2022/04/26 10:50:02;;;;;;;5.70;2.65;;;14.30;98.80;;;;;;4957556;28;20125;-64
2022/04/26 10:52:36;;;;;;;5.70;2.50;;;14.20;98.40;;;;;;5006891;28;20096;-65
2022/04/26 10:55:05;;;;;;;5.55;2.42;;;13.80;99.10;;;;;;4994136;28;20097;-64
2022/04/26 10:57:36;;;;;;;4.70;2.30;;;14.20;96.80;;;;;;4992852;28;20050;-63
2022/04/26 11:00:07;;;;;;;4.68;2.20;;;14.00;96.80;;;;;;4994377;28;20138;-66
2022/04/26 11:02:39;;;;;;;4.75;2.40;;;14.30;96.30;;;;;;4974358;28;20074;-65
2022/04/26 11:05:25;;;;;;;5.93;2.38;;;14.50;96.20;;;;;;4973497;28;20058;-65
2022/04/26 11:07:52;;;;;;;8.05;3.40;;;14.60;96.90;;;;;;4989528;28;20046;-65
2022/04/26 11:10:24;;;;;;;5.68;2.70;;;14.70;96.40;;;;;;4993517;28;20130;-64
2022/04/26 11:12:51;;;;;;;3.63;2.30;;;14.70;96.90;;;;;;4992485;28;20046;-67
2022/04/26 11:15:21;;;;;;;5.97;2.63;;;14.40;97.10;;;;;;4992329;28;20050;-64
2022/04/26 11:17:49;;;;;;;5.70;2.65;;;14.10;96.60;;;;;;4991744;28;20058;-65
2022/04/26 11:20:24;;;;;;;6.00;2.40;;;14.40;96.90;;;;;;4993770;28;20061;-65
2022/04/26 11:22:58;;;;;;;5.30;2.63;;;14.30;96.40;;;;;;4992174;28;20050;-64
2022/04/26 11:28:12;;;;;;;8.05;2.80;;;14.40;97.20;;;;;;4992781;28;20138;-63
2022/04/26 11:30:47;;;;;;;6.30;2.70;;;14.50;96.40;;;;;;4991166;28;20412;-65
2022/04/26 11:33:23;;;;;;;5.82;2.35;;;14.10;96.40;;;;;;4973208;28;20074;-66
2022/04/26 11:35:52;;;;;;;5.05;2.70;;;14.30;96.60;;;;;;4974217;28;20047;-65
2022/04/26 11:38:18;;;;;;;8.48;2.90;;;14.40;97.00;;;;;;4973064;28;20046;-64
2022/04/26 11:40:51;;;;;;;5.78;2.63;;;14.40;97.20;;;;;;4977137;28;20423;-65
2022/04/26 11:43:26;;;;;;;8.23;2.60;;;14.70;97.30;;;;;;4992457;28;20046;-65
2022/04/26 11:45:55;;;;;;;4.32;2.25;;;14.50;96.90;;;;;;4999326;28;20141;-66
2022/04/26 11:48:23;;;;;;;5.15;2.45;;;14.30;96.70;;;;;;4995427;28;20042;-65
2022/04/26 11:50:50;;;;;;;4.10;2.30;;;14.10;96.10;;;;;;5009412;28;20113;-64
2022/04/26 11:53:21;;;;;;;7.50;2.63;;;14.50;95.50;;;;;;4976525;28;20119;-65
2022/04/26 11:55:56;;;;;;;5.30;2.30;;;14.60;95.80;;;;;;4976568;28;20046;-65
2022/04/26 11:58:42;;;;;;;4.13;2.30;;;14.50;94.50;;;;;;4993405;28;20046;-65
2022/04/26 12:01:15;;;;;;;4.53;2.20;;;14.60;95.40;;;;;;4965955;28;20058;-65
2022/04/26 12:03:49;;;;;;;4.57;2.63;;;15.00;95.00;;;;;;5013507;28;20042;-64
2022/04/26 12:06:17;;;;;;;5.97;2.25;;;14.90;95.80;;;;;;5005831;28;20374;-64
2022/04/26 12:08:48;;;;;;;5.88;2.40;;;14.70;95.70;;;;;;5012891;28;20128;-65
2022/04/26 12:11:36;;;;;;;6.55;2.55;;;14.80;94.90;;;;;;5005039;28;20057;-64
2022/04/26 12:14:16;;;;;;;5.55;2.58;;;14.50;95.30;;;;;;4976312;28;20503;-65
2022/04/26 12:16:54;;;;;;;4.85;2.20;;;14.60;95.90;;;;;;4995972;28;20073;-66
2022/04/26 12:19:32;;;;;;;5.32;2.40;;;14.90;95.10;;;;;;4970070;28;20111;-66
2022/04/26 12:22:01;;;;;;;9.75;2.80;;;15.00;95.60;;;;;;4970641;28;20043;-65
2022/04/26 12:24:29;;;;;;;4.50;2.60;;;14.90;94.70;;;;;;4979571;28;20046;-65
2022/04/26 12:27:03;;;;;;;6.72;2.50;;;14.50;95.50;;;;;;4996776;28;20053;-65
2022/04/26 12:29:30;;;;;;;;;;;14.50;95.40;;;;;;4980215;28;20152;-64
2022/04/26 12:31:57;;;;;;;5.97;2.25;;;14.40;95.00;;;;;;4991962;28;19918;-64
2022/04/26 12:34:26;;;;;;;5.45;2.63;;;14.50;95.60;;;;;;4998965;28;20054;-64
2022/04/26 12:36:59;;;;;;;4.72;2.20;;;14.80;95.00;;;;;;4982704;28;20053;-67
2022/04/26 12:39:48;;;;;;;4.72;2.65;;;14.80;94.60;;;;;;4999209;28;20128;-64
2022/04/26 12:42:34;;;;;;;4.22;2.38;;;14.80;95.60;;;;;;5010791;28;20363;-64
2022/04/26 12:45:23;;;;;;;6.90;2.70;;;15.10;94.10;;;;;;5014850;28;20038;-68
2022/04/26 12:50:55;;;;;;;4.07;2.30;;;14.90;93.90;;;;;;4972549;28;20763;-65
2022/04/26 12:53:28;;;;;;;3.33;2.40;;;14.90;94.20;;;;;;4957929;28;20043;-64
2022/04/26 12:55:54;;;;;;;4.97;2.42;;;14.80;94.10;;;;;;4957900;28;20114;-64
2022/04/26 12:58:37;;;;;;;7.03;2.70;;;15.00;94.90;;;;;;4940297;29;20047;-64
2022/04/26 13:01:04;;;;;;;5.18;2.75;;;15.10;94.60;;;;;;4962616;28;20046;-64
2022/04/26 13:03:30;;;;;;;5.22;2.72;;;15.20;94.40;;;;;;4977019;28;20081;-65
2022/04/26 13:06:10;;;;;;;7.43;2.90;;;15.30;93.40;;;;;;4975837;28;20071;-65
2022/04/26 13:08:37;;;;;;;4.60;2.17;;;15.10;93.20;;;;;;4976915;28;20030;-64
2022/04/26 13:11:04;;;;;;;4.63;2.60;;;14.90;93.30;;;;;;4972014;28;20153;-64
2022/04/26 13:13:31;;;;;;;7.20;2.47;;;14.80;93.80;;;;;;4957653;28;20062;-64
2022/04/26 13:15:56;;;;;;;5.60;2.42;;;14.90;93.60;;;;;;4957387;28;20051;-64
2022/04/26 13:18:22;;;;;;;4.07;2.28;;;15.10;93.70;;;;;;4962402;28;20047;-64
2022/04/26 13:20:48;;;;;;;4.32;2.50;;;15.20;93.90;;;;;;4974907;28;20042;-67
2022/04/26 13:23:16;;;;;;;6.43;2.70;;;15.30;93.80;;;;;;4976434;28;20280;-64
2022/04/26 13:25:43;;;;;;;6.25;2.50;;;15.20;94.40;;;;;;4974969;28;20050;-67
2022/04/26 13:28:09;;;;;;;6.53;2.55;;;15.20;93.50;;;;;;4974815;28;20125;-63
2022/04/26 13:30:36;;;;;;;5.45;2.78;;;15.40;93.30;;;;;;4973863;28;20118;-64
2022/04/26 13:33:03;;;;;;;4.85;2.50;;;15.40;93.80;;;;;;4956972;28;20126;-63
2022/04/26 13:35:28;;;;;;;6.07;2.53;;;15.60;94.20;;;;;;4957136;28;20074;-63
2022/04/26 13:37:55;;;;;;;4.07;2.33;;;16.00;93.60;;;;;;4956831;28;20488;-64
2022/04/26 13:40:21;;;;;;;6.13;2.53;;;16.00;92.80;;;;;;4957073;28;20142;-63
2022/04/26 13:42:48;;;;;;;4.57;2.47;;;15.80;93.00;;;;;;4974152;28;20050;-64
2022/04/26 13:45:14;;;;;;;5.63;2.40;;;15.80;92.90;;;;;;4976692;28;20118;-64
2022/04/26 13:47:40;;;;;;;4.47;2.15;;;15.60;92.30;;;;;;5014516;28;20115;-64
2022/04/26 13:50:08;;;;;;;5.47;2.22;;;15.60;92.60;;;;;;4998025;28;20460;-64
2022/04/26 13:52:34;;;;;;;7.85;2.35;;;15.60;92.70;;;;;;4998109;28;20034;-63
2022/04/26 13:55:00;;;;;;;3.92;2.55;;;15.80;92.90;;;;;;5015013;28;20505;-64
2022/04/26 13:57:26;;;;;;;3.70;2.30;;;15.90;93.10;;;;;;5013546;28;20573;-65
2022/04/26 13:59:52;;;;;;;4.93;2.63;;;16.00;92.70;;;;;;5014643;28;20109;-64
2022/04/26 14:02:21;;;;;;;5.32;2.40;;;16.00;92.80;;;;;;5013013;28;20493;-64
2022/04/26 14:04:47;;;;;;;5.18;2.78;;;16.00;92.20;;;;;;5014297;28;20107;-64
2022/04/26 14:07:14;;;;;;;5.65;2.22;;;16.20;91.70;;;;;;4996706;28;20120;-65
2022/04/26 14:09:40;;;;;;;5.35;2.40;;;16.40;91.30;;;;;;5014376;28;20038;-63
2022/04/26 14:12:08;;;;;;;6.15;2.50;;;15.90;91.20;;;;;;5001541;28;20038;-64
2022/04/26 14:22:48;;;;;;;7.03;2.80;;;16.00;91.10;;;;;;4995751;28;20065;-64
2022/04/26 14:25:14;;;;;;;4.65;2.50;;;16.00;91.10;;;;;;4994869;28;20125;-66
2022/04/26 14:27:42;;;;;;;4.78;2.42;;;16.10;91.00;;;;;;4977169;28;20525;-64
2022/04/26 14:30:11;;;;;;;5.50;2.80;;;15.90;91.30;;;;;;4994549;28;20044;-65
2022/04/26 14:32:36;;;;;;;5.07;2.20;;;16.00;91.70;;;;;;5011049;28;20038;-66
2022/04/26 14:35:02;;;;;;;5.28;2.80;;;15.70;92.00;;;;;;5013987;28;20331;-64
2022/04/26 14:37:28;;;;;;;5.47;2.80;;;15.60;92.10;;;;;;5013797;28;20042;-64
2022/04/26 14:39:54;;;;;;;4.90;2.50;;;15.30;92.60;;;;;;5014154;28;20131;-66
2022/04/26 14:42:20;;;;;;;5.10;2.70;;;15.30;93.30;;;;;;4986540;28;20057;-64
2022/04/26 14:44:47;;;;;;;5.32;2.67;;;15.10;92.60;;;;;;4994438;28;20065;-64
2022/04/26 14:47:14;;;;;;;6.10;2.55;;;15.00;92.60;;;;;;4993578;28;20054;-65
2022/04/26 14:49:40;;;;;;;5.05;2.65;;;15.00;92.60;;;;;;4994139;28;20534;-64
2022/04/26 14:52:06;;;;;;;3.92;2.22;;;15.10;92.60;;;;;;5006717;28;20056;-64
2022/04/26 14:54:33;;;;;;;4.90;2.63;;;15.00;93.00;;;;;;5014010;28;20042;-64
2022/04/26 14:56:59;;;;;;;7.28;2.60;;;15.30;93.00;;;;;;5013566;28;20048;-64
2022/04/26 14:59:25;;;;;;;4.82;2.60;;;15.30;92.50;;;;;;5014046;28;20046;-64
2022/04/26 15:01:52;;;;;;;6.38;2.42;;;15.20;92.80;;;;;;5002818;28;20443;-64
2022/04/26 15:04:19;;;;;;;4.95;2.70;;;15.30;92.60;;;;;;4994332;28;20042;-64
2022/04/26 15:06:46;;;;;;;5.80;2.78;;;15.40;92.70;;;;;;4993774;28;20046;-64
2022/04/26 15:17:26;;;;;;;4.68;2.33;;;15.40;93.30;;;;;;4996143;28;20065;-66
2022/04/26 15:19:52;;;;;;;6.60;2.85;;;15.00;94.50;;;;;;5013602;28;20399;-66
2022/04/26 15:22:22;;;;;;;5.72;2.80;;;14.80;93.80;;;;;;4999650;28;20440;-63
2022/04/26 15:24:49;;;;;;;4.75;2.60;;;14.80;94.60;;;;;;4993961;28;20346;-64
2022/04/26 15:27:15;;;;;;;4.70;2.45;;;14.80;95.20;;;;;;4976475;28;20050;-65
2022/04/26 15:29:42;;;;;;;6.18;2.97;;;14.70;95.30;;;;;;4976676;28;20474;-64
2022/04/26 15:32:09;;;;;;;8.23;2.80;;;14.80;95.00;;;;;;4991112;28;20050;-67
2022/04/26 15:34:35;;;;;;;8.02;3.17;;;14.80;95.10;;;;;;5013555;28;20045;-68
2022/04/26 15:37:01;;;;;;;5.03;2.53;;;14.80;94.90;;;;;;4995734;28;20057;-68
2022/04/26 15:39:27;;;;;;;7.50;2.85;;;14.80;94.80;;;;;;4996508;28;20466;-67
2022/04/26 15:41:53;;;;;;;4.38;2.25;;;14.90;94.80;;;;;;5012194;28;20046;-67
2022/04/26 15:44:20;;;;;;;5.13;2.58;;;15.00;94.30;;;;;;5012381;28;20077;-68
2022/04/26 15:46:50;;;;;;;9.88;2.42;;;14.70;93.80;;;;;;5011579;28;20147;-64
2022/04/26 15:49:19;;;;;;;4.15;2.33;;;14.70;94.50;;;;;;5012172;28;20042;-66
2022/04/26 15:51:44;;;;;;;6.65;2.58;;;14.80;94.50;;;;;;4999898;28;20042;-65
2022/04/26 15:54:10;;;;;;;5.28;2.47;;;14.80;94.00;;;;;;4997746;28;20053;-65
2022/04/26 15:56:36;;;;;;;7.03;2.60;;;14.80;94.40;;;;;;4997196;28;20050;-65
2022/04/26 15:59:02;;;;;;;3.78;2.58;;;14.60;94.50;;;;;;4980379;28;20050;-65
2022/04/26 16:01:28;;;;;;;4.97;2.45;;;14.40;94.50;;;;;;5004310;28;20053;-64
2022/04/26 16:03:54;;;;;;;4.75;2.60;;;14.30;95.10;;;;;;4999608;28;20046;-66
2022/04/26 16:06:20;;;;;;;5.28;2.88;;;14.40;95.10;;;;;;5016766;28;20116;-65
2022/04/26 16:08:46;;;;;;;3.75;2.50;;;14.60;94.70;;;;;;5016937;28;20069;-66
2022/04/26 16:22:16;;;;;;;8.55;3.15;;;14.30;94.80;;;;;;5000966;28;20350;-65
2022/04/26 16:24:42;;;;;;;5.43;2.83;;;14.30;94.70;;;;;;5016766;28;20131;-66
2022/04/26 16:27:08;;;;;;;7.55;2.60;;;14.30;95.00;;;;;;5016198;28;20121;-65
2022/04/26 16:29:34;;;;;;;5.78;2.60;;;14.40;94.90;;;;;;4999209;28;20113;-65
2022/04/26 16:32:01;;;;;;;6.30;3.88;;;14.40;94.60;;;;;;5015755;28;20045;-65
2022/04/26 16:34:27;;;;;;;5.30;2.90;;;14.40;94.60;;;;;;5016420;28;20586;-64
2022/04/26 16:36:55;;;;;;;8.18;2.75;;;14.40;94.80;;;;;;4999045;28;20095;-65
2022/04/26 16:39:21;;;;;;;7.55;3.42;;;14.30;94.80;;;;;;4999309;28;20084;-64
2022/04/26 16:41:46;;;;;;;6.88;2.95;;;14.10;95.00;;;;;;4989762;28;20038;-64
2022/04/26 16:44:12;;;;;;;5.95;3.17;;;14.00;95.50;;;;;;4979553;28;20038;-66
2022/04/26 16:46:37;;;;;;;5.53;3.15;;;13.80;95.20;;;;;;4986572;28;20205;-65
2022/04/26 16:49:03;;;;;;;4.47;2.65;;;13.80;95.70;;;;;;4979121;28;20185;-65
2022/04/26 16:51:34;;;;;;;6.13;2.92;;;13.90;96.60;;;;;;4996936;28;20034;-64
2022/04/26 16:54:00;;;;;;;4.68;2.72;;;13.90;96.40;;;;;;5002437;28;20042;-64
2022/04/26 16:56:26;;;;;;;8.23;3.15;;;13.90;96.40;;;;;;4982709;28;20041;-64
2022/04/26 16:58:51;;;;;;;6.03;3.08;;;13.80;96.10;;;;;;5014800;28;20111;-64
2022/04/26 17:01:17;;;;;;;6.97;3.15;;;13.80;96.50;;;;;;4997595;28;20475;-64
2022/04/26 17:03:42;;;;;;;4.63;2.60;;;13.80;96.70;;;;;;4997849;28;20057;-64
2022/04/26 17:06:09;;;;;;;8.85;3.75;;;13.80;97.20;;;;;;5014765;28;20026;-63
2022/04/26 17:08:34;;;;;;;7.68;3.42;;;13.80;97.20;;;;;;5011390;28;20048;-64
2022/04/26 17:13:45;;;;;;;;;;;13.60;97.40;;;;;;5011595;28;20046;-64
2022/04/26 17:16:11;;;;;;;11.02;7.72;;;13.60;99.00;;;;;;5013150;28;20007;-64
2022/04/26 17:18:37;;;;;;;12.25;8.45;;;13.60;98.70;;;;;;5013738;28;20458;-63
2022/04/26 17:21:03;;;;;;;15.13;10.57;;;13.80;99.30;;;;;;4994169;28;20056;-64